createdAt,value
2019-01-27T00:01:05.139Z,88.49
2019-01-27T00:03:35.183Z,88.28
2019-01-27T00:06:06.328Z,88.31
2019-01-27T00:08:36.698Z,88.17
2019-01-27T00:11:07.189Z,88.00
2019-01-27T00:13:37.321Z,87.82
2019-01-27T00:16:07.392Z,87.60
2019-01-27T00:18:37.633Z,87.66
2019-01-27T00:21:07.739Z,87.74
2019-01-27T00:23:38.062Z,87.46
2019-01-27T00:26:08.315Z,87.52
2019-01-27T00:28:38.600Z,87.50
2019-01-27T00:31:08.627Z,87.46
2019-01-27T00:33:38.536Z,87.09
2019-01-27T00:36:08.626Z,87.01
2019-01-27T00:38:39.145Z,87.10
2019-01-27T00:41:09.300Z,87.07
2019-01-27T00:43:39.623Z,87.22
2019-01-27T00:46:09.805Z,87.13
2019-01-27T00:48:39.832Z,87.32
2019-01-27T00:51:09.855Z,87.33
2019-01-27T00:53:40.022Z,87.31
2019-01-27T00:56:10.000Z,87.12
2019-01-27T00:58:39.979Z,87.01
2019-01-27T01:01:10.051Z,86.74
2019-01-27T01:03:40.217Z,86.60
2019-01-27T01:06:10.334Z,86.38
2019-01-27T01:08:40.362Z,86.25
2019-01-27T01:11:10.402Z,86.32
2019-01-27T01:13:40.889Z,86.44
2019-01-27T01:16:11.196Z,86.25
2019-01-27T01:18:41.607Z,86.29
2019-01-27T01:21:11.696Z,86.50
2019-01-27T01:23:41.916Z,86.24
2019-01-27T01:26:12.135Z,86.41
2019-01-27T01:28:42.132Z,86.67
2019-01-27T01:31:12.031Z,86.79
2019-01-27T01:33:42.271Z,86.57
2019-01-27T01:36:12.727Z,87.04
2019-01-27T01:38:42.878Z,87.23
2019-01-27T01:41:13.365Z,87.66
2019-01-27T01:43:43.310Z,87.69
2019-01-27T01:46:13.600Z,87.93
2019-01-27T01:48:44.058Z,88.08
2019-01-27T01:51:14.017Z,88.13
2019-01-27T01:53:44.096Z,87.95
2019-01-27T01:56:14.105Z,87.80
2019-01-27T01:58:44.027Z,87.64
2019-01-27T02:01:14.054Z,87.88
2019-01-27T02:03:43.960Z,88.13
2019-01-27T02:06:13.991Z,88.36
2019-01-27T02:08:45.682Z,88.49
2019-01-27T02:11:15.721Z,88.41
2019-01-27T02:13:45.961Z,88.53
2019-01-27T02:16:16.134Z,88.65
2019-01-27T02:18:46.612Z,88.75
2019-01-27T02:21:16.809Z,88.68
2019-01-27T02:23:46.798Z,88.65
2019-01-27T02:26:16.795Z,88.64
2019-01-27T02:28:46.713Z,88.44
2019-01-27T02:31:16.674Z,88.53
2019-01-27T02:33:46.969Z,88.37
2019-01-27T02:36:17.419Z,88.13
2019-01-27T02:38:47.595Z,87.84
2019-01-27T02:41:17.513Z,87.56
2019-01-27T02:43:47.734Z,87.36
2019-01-27T02:46:17.717Z,87.34
2019-01-27T02:48:47.954Z,87.79
2019-01-27T02:51:18.108Z,88.05
2019-01-27T02:53:48.026Z,87.96
2019-01-27T02:56:17.965Z,87.96
2019-01-27T02:58:48.151Z,87.77
2019-01-27T03:01:18.090Z,87.78
2019-01-27T03:03:48.193Z,87.69
2019-01-27T03:06:28.130Z,87.71
2019-01-27T03:09:15.724Z,87.71
2019-01-27T03:11:49.933Z,87.59
2019-01-27T03:14:21.350Z,87.71
2019-01-27T03:16:52.905Z,87.66
2019-01-27T03:19:23.391Z,87.71
2019-01-27T03:21:53.634Z,87.67
2019-01-27T03:24:24.151Z,87.79
2019-01-27T03:26:54.606Z,87.97
2019-01-27T03:29:24.508Z,87.76
2019-01-27T03:31:54.702Z,87.55
2019-01-27T03:34:24.690Z,87.46
2019-01-27T03:36:54.714Z,87.29
2019-01-27T03:39:24.630Z,87.54
2019-01-27T03:41:54.685Z,87.34
2019-01-27T03:44:24.717Z,87.09
2019-01-27T03:46:54.959Z,87.17
2019-01-27T03:49:24.900Z,87.03
2019-01-27T03:51:54.968Z,86.84
2019-01-27T03:54:24.924Z,86.79
2019-01-27T03:56:55.065Z,86.87
2019-01-27T03:59:25.267Z,86.91
2019-01-27T04:01:55.449Z,86.65
2019-01-27T04:04:25.834Z,86.79
2019-01-27T04:06:56.006Z,86.90
2019-01-27T04:09:26.447Z,86.86
2019-01-27T04:11:56.432Z,86.92
2019-01-27T04:14:26.458Z,87.07
2019-01-27T04:16:56.891Z,86.94
2019-01-27T04:19:27.331Z,87.16
2019-01-27T04:21:57.719Z,87.21
2019-01-27T04:24:27.901Z,87.03
2019-01-27T04:26:58.155Z,87.15
2019-01-27T04:29:28.082Z,87.76
2019-01-27T04:31:58.283Z,88.57
2019-01-27T04:34:28.279Z,89.00
2019-01-27T04:36:58.486Z,89.28
2019-01-27T04:39:28.929Z,89.46
2019-01-27T04:41:59.137Z,89.59
2019-01-27T04:44:29.255Z,89.78
2019-01-27T04:46:59.671Z,90.11
2019-01-27T04:49:29.612Z,90.69
2019-01-27T04:51:59.577Z,90.78
2019-01-27T04:54:29.571Z,90.58
2019-01-27T04:57:00.192Z,90.55
2019-01-27T04:59:30.965Z,90.65
2019-01-27T05:02:01.560Z,90.74
2019-01-27T05:04:36.848Z,90.46
2019-01-27T05:07:07.094Z,90.17
2019-01-27T05:09:37.357Z,90.05
2019-01-27T05:12:07.585Z,89.99
2019-01-27T05:14:37.524Z,89.99
2019-01-27T05:17:07.959Z,90.06
2019-01-27T05:19:38.115Z,89.78
2019-01-27T05:22:08.823Z,89.63
2019-01-27T05:24:38.996Z,89.67
2019-01-27T05:27:09.423Z,89.60
2019-01-27T05:29:39.848Z,89.78
2019-01-27T05:32:09.812Z,89.69
2019-01-27T05:34:41.882Z,89.99
2019-01-27T05:37:12.106Z,90.44
2019-01-27T05:39:42.323Z,90.55
2019-01-27T05:42:12.777Z,90.42
2019-01-27T05:44:43.182Z,90.49
2019-01-27T05:47:13.454Z,90.55
2019-01-27T05:49:45.112Z,90.25
2019-01-27T05:52:22.121Z,90.14
2019-01-27T05:54:52.318Z,90.19
2019-01-27T05:57:22.318Z,89.99
2019-01-27T05:59:52.754Z,89.92
2019-01-27T06:02:22.687Z,89.91
2019-01-27T06:04:52.711Z,89.66
2019-01-27T06:07:22.937Z,89.46
2019-01-27T06:09:52.967Z,89.49
2019-01-27T06:12:23.282Z,89.40
2019-01-27T06:14:53.990Z,89.50
2019-01-27T06:17:24.320Z,89.43
2019-01-27T06:19:54.582Z,89.48
2019-01-27T06:22:27.149Z,89.60
2019-01-27T06:24:59.218Z,89.55
2019-01-27T06:27:30.889Z,89.53
2019-01-27T06:30:01.824Z,89.70
2019-01-27T06:32:59.193Z,89.83
2019-01-27T06:35:30.816Z,90.12
2019-01-27T06:38:04.088Z,90.41
2019-01-27T06:40:34.679Z,90.53
2019-01-27T06:43:04.862Z,90.77
2019-01-27T06:45:34.850Z,90.80
2019-01-27T06:48:05.367Z,90.86
2019-01-27T06:50:35.951Z,91.05
2019-01-27T06:53:07.497Z,91.06
2019-01-27T06:55:37.484Z,90.82
2019-01-27T06:58:07.958Z,90.84
2019-01-27T07:01:03.794Z,91.02
2019-01-27T07:03:44.138Z,91.03
2019-01-27T07:06:34.534Z,90.88
2019-01-27T07:09:19.266Z,90.76
2019-01-27T07:12:11.539Z,90.48
2019-01-27T07:14:53.914Z,90.44
2019-01-27T07:17:38.136Z,90.05
2019-01-27T07:20:27.317Z,90.30
2019-01-27T07:23:07.048Z,90.03
2019-01-27T07:25:44.934Z,89.69
2019-01-27T07:28:25.297Z,89.68
2019-01-27T07:31:21.141Z,89.48
2019-01-27T07:34:10.670Z,89.48
2019-01-27T07:37:18.815Z,89.34
2019-01-27T07:40:13.843Z,89.22
2019-01-27T07:43:02.693Z,89.42
2019-01-27T07:45:43.765Z,89.57
2019-01-27T07:48:33.335Z,89.59
2019-01-27T07:51:21.896Z,89.56
2019-01-27T07:54:01.877Z,89.78
2019-01-27T07:56:48.925Z,89.45
2019-01-27T07:59:27.629Z,89.57
2019-01-27T08:02:09.223Z,89.36
2019-01-27T08:05:01.665Z,89.14
2019-01-27T08:07:51.340Z,88.94
2019-01-27T08:10:40.229Z,88.74
2019-01-27T08:13:35.573Z,88.99
2019-01-27T08:16:23.854Z,88.71
2019-01-27T08:19:00.197Z,88.20
2019-01-27T08:22:01.407Z,88.09
2019-01-27T08:24:42.083Z,88.22
2019-01-27T08:27:20.280Z,88.36
2019-01-27T08:30:06.834Z,88.01
2019-01-27T08:32:47.331Z,88.37
2019-01-27T08:35:35.340Z,88.40
2019-01-27T08:38:23.267Z,88.72
2019-01-27T08:41:10.901Z,88.35
2019-01-27T08:44:02.959Z,88.09
2019-01-27T08:46:40.129Z,87.55
2019-01-27T08:49:10.101Z,86.88
2019-01-27T08:51:40.267Z,86.67
2019-01-27T08:54:10.252Z,86.58
2019-01-27T08:56:40.248Z,86.57
2019-01-27T08:59:10.896Z,86.44
2019-01-27T09:01:58.731Z,86.25
2019-01-27T09:04:37.138Z,86.02
2019-01-27T09:07:38.365Z,85.67
2019-01-27T09:10:29.165Z,85.36
2019-01-27T09:13:30.714Z,84.77
2019-01-27T09:16:12.651Z,84.53
2019-01-27T09:18:50.636Z,84.84
2019-01-27T09:21:38.500Z,83.71
2019-01-27T09:24:25.771Z,83.01
2019-01-27T09:27:03.856Z,82.99
2019-01-27T09:29:42.550Z,82.51
2019-01-27T09:32:28.648Z,82.19
2019-01-27T09:35:08.969Z,82.59
2019-01-27T09:37:56.940Z,81.96
2019-01-27T09:40:55.490Z,81.84
2019-01-27T09:43:46.466Z,81.25
2019-01-27T09:46:30.242Z,79.86
2019-01-27T09:49:05.970Z,77.28
2019-01-27T09:51:49.009Z,75.04
2019-01-27T09:54:36.340Z,74.16
2019-01-27T09:57:31.400Z,72.58
2019-01-27T10:00:19.210Z,75.36
2019-01-27T10:03:03.665Z,74.67
2019-01-27T10:06:02.120Z,75.87
2019-01-27T10:09:05.898Z,75.48
2019-01-27T10:12:09.917Z,75.97
2019-01-27T10:15:03.275Z,75.26
2019-01-27T10:17:52.443Z,76.19
2019-01-27T10:20:42.871Z,76.13
2019-01-27T10:23:19.082Z,76.64
2019-01-27T10:25:56.741Z,77.69
2019-01-27T10:28:40.530Z,76.58
2019-01-27T10:31:20.862Z,76.50
2019-01-27T10:34:16.472Z,75.06
2019-01-27T10:36:57.766Z,76.62
2019-01-27T10:39:52.766Z,76.51
2019-01-27T10:42:35.736Z,75.65
2019-01-27T10:45:13.028Z,73.87
2019-01-27T10:47:57.800Z,72.49
2019-01-27T10:50:38.568Z,70.55
2019-01-27T10:53:21.022Z,70.85
2019-01-27T10:56:10.250Z,71.40
2019-01-27T10:59:02.117Z,69.05
2019-01-27T11:02:03.238Z,70.62
2019-01-27T11:04:53.669Z,70.30
2019-01-27T11:07:35.514Z,69.12
2019-01-27T11:10:36.773Z,69.57
2019-01-27T11:13:25.780Z,69.46
2019-01-27T11:16:13.646Z,68.71
2019-01-27T11:18:50.289Z,67.41
2019-01-27T11:21:32.716Z,68.52
2019-01-27T11:24:20.773Z,68.98
2019-01-27T11:27:00.316Z,70.72
2019-01-27T11:29:35.360Z,71.49
2019-01-27T11:32:27.599Z,70.95
2019-01-27T11:35:01.770Z,71.21
2019-01-27T11:37:42.037Z,70.79
2019-01-27T11:40:19.811Z,71.17
2019-01-27T11:43:04.760Z,70.31
2019-01-27T11:45:55.936Z,71.04
2019-01-27T11:48:32.934Z,71.27
2019-01-27T11:51:08.115Z,71.78
2019-01-27T11:53:38.542Z,72.49
2019-01-27T11:56:09.004Z,72.88
2019-01-27T11:58:39.134Z,73.62
2019-01-27T12:01:09.402Z,73.33
2019-01-27T12:03:39.318Z,73.43
2019-01-27T12:06:10.024Z,73.87
2019-01-27T12:08:40.216Z,73.86
2019-01-27T12:11:10.261Z,73.83
2019-01-27T12:13:40.415Z,73.51
2019-01-27T12:16:10.382Z,73.59
2019-01-27T12:18:40.552Z,74.10
2019-01-27T12:21:10.591Z,72.86
2019-01-27T12:23:40.498Z,72.91
2019-01-27T12:26:10.665Z,73.90
2019-01-27T12:28:40.950Z,73.31
2019-01-27T12:31:10.887Z,72.18
2019-01-27T12:33:41.040Z,72.04
2019-01-27T12:36:11.209Z,75.00
2019-01-27T12:38:41.131Z,70.38
2019-01-27T12:41:11.063Z,71.76
2019-01-27T12:43:41.248Z,70.34
2019-01-27T12:46:11.125Z,70.41
2019-01-27T12:48:41.274Z,70.00
2019-01-27T12:51:11.777Z,69.52
2019-01-27T12:53:41.742Z,70.42
2019-01-27T12:56:12.250Z,70.01
2019-01-27T12:58:42.141Z,70.31
2019-01-27T13:01:14.103Z,70.34
2019-01-27T13:03:43.971Z,72.09
2019-01-27T13:06:14.126Z,71.91
2019-01-27T13:08:44.048Z,71.97
2019-01-27T13:11:14.258Z,72.75
2019-01-27T13:13:44.230Z,72.33
2019-01-27T13:16:14.224Z,73.31
2019-01-27T13:18:44.112Z,72.80
2019-01-27T13:21:14.403Z,72.95
2019-01-27T13:23:45.263Z,73.36
2019-01-27T13:26:15.177Z,72.91
2019-01-27T13:28:45.123Z,73.08
2019-01-27T13:31:15.398Z,72.78
2019-01-27T13:33:45.584Z,72.42
2019-01-27T13:36:16.025Z,72.28
2019-01-27T13:38:51.051Z,71.97
2019-01-27T13:41:17.856Z,72.67
2019-01-27T13:43:48.019Z,73.14
2019-01-27T13:46:18.329Z,73.04
2019-01-27T13:48:48.317Z,73.28
2019-01-27T13:51:18.819Z,73.33
2019-01-27T13:53:48.992Z,72.90
2019-01-27T13:56:19.373Z,72.79
2019-01-27T13:58:49.603Z,73.14
2019-01-27T14:01:19.539Z,73.56
2019-01-27T14:03:49.677Z,73.44
2019-01-27T14:06:19.677Z,74.53
2019-01-27T14:08:49.791Z,74.51
2019-01-27T14:11:19.777Z,73.92
2019-01-27T14:13:49.937Z,74.28
2019-01-27T14:16:20.229Z,75.21
2019-01-27T14:18:50.402Z,75.31
2019-01-27T14:21:20.305Z,76.11
2019-01-27T14:23:50.247Z,76.66
2019-01-27T14:26:20.114Z,77.41
2019-01-27T14:28:50.043Z,78.29
2019-01-27T14:31:20.029Z,77.86
2019-01-27T14:33:50.708Z,78.23
2019-01-27T14:36:21.498Z,78.01
2019-01-27T14:38:51.638Z,78.12
2019-01-27T14:41:21.563Z,77.53
2019-01-27T14:43:51.466Z,77.71
2019-01-27T14:46:21.436Z,77.49
2019-01-27T14:48:51.590Z,77.10
2019-01-27T14:51:21.769Z,77.39
2019-01-27T14:53:51.915Z,77.17
2019-01-27T14:56:21.832Z,77.80
2019-01-27T14:58:51.969Z,77.23
2019-01-27T15:01:22.145Z,77.11
2019-01-27T15:03:52.636Z,77.62
2019-01-27T15:06:22.574Z,77.78
2019-01-27T15:08:52.536Z,78.37
2019-01-27T15:11:22.539Z,79.00
2019-01-27T15:13:52.532Z,78.82
2019-01-27T15:16:22.410Z,78.62
2019-01-27T15:18:52.766Z,78.97
2019-01-27T15:21:26.730Z,79.36
2019-01-27T15:23:57.034Z,79.91
2019-01-27T15:26:26.969Z,80.03
2019-01-27T15:28:57.502Z,80.37
2019-01-27T15:31:28.255Z,80.64
2019-01-27T15:33:58.749Z,80.99
2019-01-27T15:36:28.728Z,81.21
2019-01-27T15:38:59.003Z,81.63
2019-01-27T15:41:28.889Z,82.09
2019-01-27T15:43:58.835Z,81.96
2019-01-27T15:46:28.765Z,82.17
2019-01-27T15:48:58.728Z,82.43
2019-01-27T15:51:28.746Z,82.51
2019-01-27T15:53:58.977Z,82.63
2019-01-27T15:56:29.350Z,82.75
2019-01-27T15:58:59.512Z,82.81
2019-01-27T16:01:30.245Z,83.13
2019-01-27T16:04:00.230Z,83.46
2019-01-27T16:06:30.528Z,84.05
2019-01-27T16:09:00.746Z,84.71
2019-01-27T16:11:31.039Z,85.17
2019-01-27T16:14:01.008Z,85.34
2019-01-27T16:16:31.628Z,85.49
2019-01-27T16:19:01.724Z,85.72
2019-01-27T16:21:31.978Z,85.82
2019-01-27T16:24:05.316Z,86.04
2019-01-27T16:26:35.601Z,86.04
2019-01-27T16:29:06.280Z,86.26
2019-01-27T16:31:42.914Z,87.78
2019-01-27T16:34:24.263Z,88.73
2019-01-27T16:36:54.625Z,87.96
2019-01-27T16:39:24.789Z,87.16
2019-01-27T16:41:55.993Z,86.80
2019-01-27T16:44:26.270Z,86.75
2019-01-27T16:46:57.432Z,86.73
2019-01-27T16:49:29.399Z,86.78
2019-01-27T16:51:59.627Z,86.67
2019-01-27T16:54:29.696Z,86.45
2019-01-27T16:57:00.157Z,86.34
2019-01-27T16:59:30.542Z,86.78
2019-01-27T17:02:01.049Z,86.93
2019-01-27T17:04:31.409Z,87.23
2019-01-27T17:07:01.670Z,87.50
2019-01-27T17:09:31.656Z,88.03
2019-01-27T17:12:01.783Z,88.28
2019-01-27T17:14:32.146Z,88.36
2019-01-27T17:17:02.487Z,88.52
2019-01-27T17:19:32.513Z,88.49
2019-01-27T17:22:02.510Z,88.73
2019-01-27T17:24:32.962Z,88.41
2019-01-27T17:27:04.397Z,88.62
2019-01-27T17:29:34.440Z,88.71
2019-01-27T17:32:04.655Z,88.78
2019-01-27T17:34:35.259Z,88.79
2019-01-27T17:37:05.558Z,88.87
2019-01-27T17:39:36.153Z,89.05
2019-01-27T17:42:06.539Z,89.22
2019-01-27T17:44:43.018Z,89.30
2019-01-27T17:47:13.498Z,89.28
2019-01-27T17:49:43.469Z,89.24
2019-01-27T17:53:28.966Z,89.11
2019-01-27T17:55:58.837Z,89.03
2019-01-27T17:59:02.364Z,88.69
2019-01-27T18:02:13.823Z,88.81
2019-01-27T18:05:02.684Z,88.69
2019-01-27T18:07:48.849Z,88.63
2019-01-27T18:10:34.086Z,90.86
2019-01-27T18:13:32.479Z,89.66
2019-01-27T18:16:04.216Z,89.15
2019-01-27T18:18:34.150Z,88.74
2019-01-27T18:21:04.207Z,89.05
2019-01-27T18:23:34.513Z,89.15
2019-01-27T18:26:04.848Z,89.23
2019-01-27T18:28:35.056Z,88.96
2019-01-27T18:31:05.116Z,89.32
2019-01-27T18:33:35.448Z,89.19
2019-01-27T18:36:05.906Z,89.58
2019-01-27T18:38:35.958Z,89.76
2019-01-27T18:41:06.464Z,89.90
2019-01-27T18:43:36.822Z,90.00
2019-01-27T18:46:06.934Z,89.85
2019-01-27T18:48:36.916Z,90.01
2019-01-27T18:51:07.210Z,90.05
2019-01-27T18:54:01.379Z,89.88
2019-01-27T18:56:52.593Z,89.90
2019-01-27T18:59:42.728Z,89.58
2019-01-27T19:02:40.818Z,89.44
2019-01-27T19:05:33.690Z,89.24
2019-01-27T19:08:28.085Z,89.29
2019-01-27T19:11:04.202Z,89.22
2019-01-27T19:14:11.404Z,89.11
2019-01-27T19:16:57.484Z,89.28
2019-01-27T19:19:36.688Z,89.24
2019-01-27T19:22:32.206Z,89.38
2019-01-27T19:25:08.383Z,89.26
2019-01-27T19:27:55.349Z,89.13
2019-01-27T19:30:35.950Z,89.37
2019-01-27T19:33:11.543Z,89.50
2019-01-27T19:35:54.518Z,89.54
2019-01-27T19:38:43.466Z,89.61
2019-01-27T19:41:21.341Z,89.88
2019-01-27T19:43:59.157Z,90.17
2019-01-27T19:47:06.838Z,90.28
2019-01-27T19:49:54.430Z,90.71
2019-01-27T19:52:32.683Z,90.50
2019-01-27T19:55:24.020Z,90.39
2019-01-27T19:58:11.382Z,90.67
2019-01-27T20:00:59.803Z,90.86
2019-01-27T20:03:38.412Z,90.92
2019-01-27T20:06:20.266Z,90.96
2019-01-27T20:09:08.225Z,91.24
2019-01-27T20:11:48.020Z,91.54
2019-01-27T20:14:35.826Z,91.51
2019-01-27T20:17:18.242Z,91.24
2019-01-27T20:19:53.554Z,91.10
2019-01-27T20:22:42.499Z,90.98
2019-01-27T20:25:26.627Z,90.95
2019-01-27T20:28:19.049Z,91.03
2019-01-27T20:31:06.230Z,90.96
2019-01-27T20:33:55.795Z,90.97
2019-01-27T20:36:43.231Z,90.95
2019-01-27T20:39:35.473Z,90.80
2019-01-27T20:42:13.344Z,90.82
2019-01-27T20:45:03.672Z,90.65
2019-01-27T20:47:59.439Z,90.61
2019-01-27T20:51:07.157Z,90.43
2019-01-27T20:53:56.684Z,90.19
2019-01-27T20:56:48.849Z,90.09
2019-01-27T20:59:43.144Z,89.88
2019-01-27T21:02:41.406Z,89.71
2019-01-27T21:05:23.910Z,89.43
2019-01-27T21:08:10.826Z,89.29
2019-01-27T21:11:05.941Z,89.14
2019-01-27T21:13:53.836Z,89.23
2019-01-27T21:16:39.114Z,89.23
2019-01-27T21:19:26.237Z,89.17
2019-01-27T21:21:56.119Z,89.11
2019-01-27T21:24:26.200Z,88.84
2019-01-27T21:26:56.338Z,88.85
2019-01-27T21:29:26.539Z,88.92
2019-01-27T21:31:56.723Z,88.96
2019-01-27T21:34:26.669Z,89.04
2019-01-27T21:36:59.645Z,88.96
2019-01-27T21:39:29.450Z,88.77
2019-01-27T21:41:59.626Z,88.74
2019-01-27T21:44:29.483Z,88.63
2019-01-27T21:46:59.385Z,88.58
2019-01-27T21:49:29.264Z,88.67
2019-01-27T21:51:59.202Z,88.40
2019-01-27T21:54:29.064Z,88.25
2019-01-27T21:56:59.154Z,88.29
2019-01-27T21:59:29.291Z,88.13
2019-01-27T22:01:59.188Z,88.18
2019-01-27T22:04:29.285Z,88.19
2019-01-27T22:06:59.381Z,88.30
2019-01-27T22:09:29.747Z,88.56
2019-01-27T22:11:59.848Z,88.54
2019-01-27T22:14:29.671Z,88.49
2019-01-27T22:16:59.566Z,88.79
2019-01-27T22:19:29.641Z,88.95
2019-01-27T22:21:59.791Z,88.79
2019-01-27T22:24:29.921Z,88.88
2019-01-27T22:27:01.044Z,88.75
2019-01-27T22:29:30.920Z,88.90
2019-01-27T22:32:00.837Z,88.78
2019-01-27T22:34:30.697Z,88.44
2019-01-27T22:37:00.548Z,89.06
2019-01-27T22:39:31.027Z,89.03
2019-01-27T22:42:00.993Z,89.02
2019-01-27T22:44:31.613Z,88.94
2019-01-27T22:47:01.710Z,89.36
2019-01-27T22:49:31.683Z,89.33
2019-01-27T22:52:01.592Z,89.05
2019-01-27T22:54:31.550Z,89.12
2019-01-27T22:57:01.611Z,89.24
2019-01-27T22:59:31.708Z,89.09
2019-01-27T23:02:01.875Z,89.54
2019-01-27T23:04:32.063Z,90.41
2019-01-27T23:07:02.133Z,90.50
2019-01-27T23:09:32.155Z,90.76
2019-01-27T23:12:02.118Z,90.84
2019-01-27T23:14:32.085Z,90.99
2019-01-27T23:17:02.068Z,91.07
2019-01-27T23:19:31.999Z,91.18
2019-01-27T23:22:01.936Z,91.22
2019-01-27T23:24:32.097Z,91.30
2019-01-27T23:27:02.054Z,91.53
2019-01-27T23:29:31.888Z,91.67
2019-01-27T23:32:01.782Z,91.57
2019-01-27T23:34:31.853Z,91.24
2019-01-27T23:37:01.712Z,90.96
2019-01-27T23:39:31.559Z,90.88
2019-01-27T23:42:02.244Z,90.44
2019-01-27T23:44:32.168Z,90.17
2019-01-27T23:47:02.080Z,90.15
2019-01-27T23:49:32.222Z,89.95
2019-01-27T23:52:02.305Z,89.73
2019-01-27T23:54:32.437Z,89.63
2019-01-27T23:57:02.274Z,89.27
2019-01-27T23:59:32.604Z,89.09
